Friday, October 19, 2018, 11:30 AM EDT
Back to Local

KPYM, Plymouth Municipal Airport

Location: Carver, MA, United States Lat: 41.9
Local Time: 11:30 AM EDT (15:30 GMT) Lon: -70.733
Time Zone: US/Eastern Elev: 147 ft

Show me the last for .
Show Decoded

2018-10-19 10:52 METAR KPYM 191452Z AUTO 23010KT 10SM CLR 12/00 A3020 RMK AO2 SLP226 T01220000
                 58022 =
2018-10-19 09:52 METAR KPYM 191352Z AUTO 24013KT 10SM CLR 10/M01 A3023 RMK AO2 SLP238 T01001006 =
2018-10-19 08:52 METAR KPYM 191252Z AUTO 21006KT 10SM CLR 07/M01 A3025 RMK AO2 SLP243 T00671006 =
2018-10-19 07:52 METAR KPYM 191152Z AUTO 21004KT 10SM CLR 03/M02 A3026 RMK AO2 SLP248 T00331017
                 10033 21006 56004 =
2018-10-19 06:52 METAR KPYM 191052Z AUTO 23004KT 10SM CLR 02/M03 A3026 RMK AO2 SLP249 T00171028 =
2018-10-19 05:52 METAR KPYM 190952Z AUTO 24006KT 10SM CLR 02/M03 A3026 RMK AO2 SLP249 T00171033 =
2018-10-19 04:52 METAR KPYM 190852Z AUTO 25004KT 10SM CLR 01/M03 A3027 RMK AO2 SLP251 T00111033
                 55000 =
2018-10-19 03:52 METAR KPYM 190752Z AUTO 00000KT 10SM CLR 01/M04 A3026 RMK AO2 SLP248 T00061039 =
2018-10-19 02:52 METAR KPYM 190652Z AUTO 24004KT 10SM CLR 02/M04 A3027 RMK AO2 SLP250 T00171039 =
2018-10-19 01:52 METAR KPYM 190552Z AUTO 31004KT 10SM CLR 03/M04 A3027 RMK AO2 SLP252 T00281044
                 10044 20022 56007 =
2018-10-19 00:52 METAR KPYM 190452Z AUTO 27007KT 10SM CLR 03/M05 A3027 RMK AO2 SLP252 T00331050
                 400940022 =
2018-10-18 23:52 METAR KPYM 190352Z AUTO 26009KT 10SM CLR 03/M06 A3029 RMK AO2 SLP258 T00331056 =
2018-10-18 22:52 METAR KPYM 190252Z AUTO 25006KT 10SM CLR 03/M06 A3029 RMK AO2 SLP259 T00331056
                 51008 =
2018-10-18 21:52 METAR KPYM 190152Z AUTO 25005KT 10SM CLR 03/M05 A3029 RMK AO2 SLP258 T00281050 =
2018-10-18 20:52 METAR KPYM 190052Z AUTO 24005KT 10SM CLR 03/M05 A3028 RMK AO2 SLP254 T00281050 =
2018-10-18 19:52 METAR KPYM 182352Z AUTO 27007KT 10SM CLR 04/M06 A3027 RMK AO2 SLP251 T00441061
                 10094 20039 51021 =
2018-10-18 18:52 METAR KPYM 182252Z AUTO 25004KT 10SM CLR 05/M06 A3026 RMK AO2 SLP248 T00501061 =
2018-10-18 17:52 METAR KPYM 182152Z AUTO 28007KT 10SM CLR 07/M07 A3023 RMK AO2 SLP238 T00671072 =
2018-10-18 16:52 METAR KPYM 182052Z AUTO 30010KT 10SM CLR 08/M09 A3021 RMK AO2 SLP230 T00831089
                 53003 =
2018-10-18 15:52 METAR KPYM 181952Z AUTO 28011KT 10SM CLR 09/M09 A3020 RMK AO2 SLP227 T00891089 =
2018-10-18 14:52 METAR KPYM 181852Z AUTO 30015G23KT 10SM CLR 09/M09 A3020 RMK AO2 SLP226
                 T00891094 =
2018-10-18 13:52 METAR KPYM 181752Z AUTO 31012G19KT 10SM CLR 09/M08 A3020 RMK AO2 SLP227
                 T00891083 10094 20039 56005 =
2018-10-18 12:52 METAR KPYM 181652Z AUTO 30017G22KT 10SM CLR 08/M08 A3020 RMK AO2 SLP227
                 T00831083 =
2018-10-18 11:52 METAR KPYM 181552Z AUTO 30014KT 10SM CLR 08/M07 A3021 RMK AO2 SLP230 T00781072 =

Support USWX by starting your Amazon purchase here.